sensor_id;sensor_type;location;lat;lon;timestamp;pressure;altitude;pressure_sealevel;temperature;humidity
60642;BME280;46837;52.446;-1.930;2023-12-29T00:00:09;98823.30;;;8.24;73.66
60642;BME280;46837;52.446;-1.930;2023-12-29T00:01:09;98814.03;;;8.21;73.55
60642;BME280;46837;52.446;-1.930;2023-12-29T00:02:09;98820.59;;;8.23;73.57
60642;BME280;46837;52.446;-1.930;2023-12-29T00:03:09;98827.76;;;8.24;73.56
60642;BME280;46837;52.446;-1.930;2023-12-29T00:04:09;98835.14;;;8.21;73.48
60642;BME280;46837;52.446;-1.930;2023-12-29T00:05:09;98830.43;;;8.23;73.47
60642;BME280;46837;52.446;-1.930;2023-12-29T00:06:09;98848.32;;;8.18;73.08
60642;BME280;46837;52.446;-1.930;2023-12-29T00:07:09;98841.46;;;8.20;73.13
60642;BME280;46837;52.446;-1.930;2023-12-29T00:08:09;98834.68;;;8.22;73.11
60642;BME280;46837;52.446;-1.930;2023-12-29T00:09:09;98842.33;;;8.19;73.24
60642;BME280;46837;52.446;-1.930;2023-12-29T00:10:09;98845.75;;;8.21;73.09
60642;BME280;46837;52.446;-1.930;2023-12-29T00:11:15;98837.87;;;8.20;73.16
60642;BME280;46837;52.446;-1.930;2023-12-29T00:12:09;98840.26;;;8.19;73.20
60642;BME280;46837;52.446;-1.930;2023-12-29T00:13:09;98829.11;;;8.18;73.25
60642;BME280;46837;52.446;-1.930;2023-12-29T00:14:09;98825.03;;;8.18;73.25
60642;BME280;46837;52.446;-1.930;2023-12-29T00:15:09;98824.73;;;8.15;73.24
60642;BME280;46837;52.446;-1.930;2023-12-29T00:16:09;98827.84;;;8.15;73.06
60642;BME280;46837;52.446;-1.930;2023-12-29T00:17:09;98836.95;;;8.12;72.92
60642;BME280;46837;52.446;-1.930;2023-12-29T00:18:09;98843.43;;;8.12;72.84
60642;BME280;46837;52.446;-1.930;2023-12-29T00:19:09;98842.09;;;8.09;72.83
60642;BME280;46837;52.446;-1.930;2023-12-29T00:20:09;98826.54;;;8.09;72.61
60642;BME280;46837;52.446;-1.930;2023-12-29T00:21:09;98826.61;;;8.12;72.41
60642;BME280;46837;52.446;-1.930;2023-12-29T00:22:09;98816.60;;;8.13;72.54
60642;BME280;46837;52.446;-1.930;2023-12-29T00:23:09;98834.72;;;8.12;72.27
60642;BME280;46837;52.446;-1.930;2023-12-29T00:24:09;98824.82;;;8.11;72.21
60642;BME280;46837;52.446;-1.930;2023-12-29T00:25:09;98838.83;;;8.09;72.42
60642;BME280;46837;52.446;-1.930;2023-12-29T00:26:09;98830.75;;;8.11;72.11
60642;BME280;46837;52.446;-1.930;2023-12-29T00:27:09;98833.36;;;8.12;72.01
60642;BME280;46837;52.446;-1.930;2023-12-29T00:28:09;98839.01;;;8.14;72.07
60642;BME280;46837;52.446;-1.930;2023-12-29T00:29:09;98820.46;;;8.11;72.28
60642;BME280;46837;52.446;-1.930;2023-12-29T00:30:09;98845.11;;;8.11;72.21
60642;BME280;46837;52.446;-1.930;2023-12-29T00:31:09;98839.32;;;8.10;72.29
60642;BME280;46837;52.446;-1.930;2023-12-29T00:32:09;98828.22;;;8.09;72.10
60642;BME280;46837;52.446;-1.930;2023-12-29T00:33:09;98832.02;;;8.10;72.22
60642;BME280;46837;52.446;-1.930;2023-12-29T00:34:09;98830.43;;;8.11;72.26
60642;BME280;46837;52.446;-1.930;2023-12-29T00:35:09;98837.96;;;8.10;72.16
60642;BME280;46837;52.446;-1.930;2023-12-29T00:36:09;98832.87;;;8.12;72.01
60642;BME280;46837;52.446;-1.930;2023-12-29T00:37:09;98839.59;;;8.10;72.06
60642;BME280;46837;52.446;-1.930;2023-12-29T00:38:09;98829.52;;;8.09;72.09
60642;BME280;46837;52.446;-1.930;2023-12-29T00:39:09;98821.44;;;8.12;72.17
60642;BME280;46837;52.446;-1.930;2023-12-29T00:40:09;98829.36;;;8.08;72.04
60642;BME280;46837;52.446;-1.930;2023-12-29T00:41:09;98831.86;;;8.11;72.15
60642;BME280;46837;52.446;-1.930;2023-12-29T00:42:09;98830.80;;;8.11;72.19
60642;BME280;46837;52.446;-1.930;2023-12-29T00:43:09;98828.84;;;8.12;72.23
60642;BME280;46837;52.446;-1.930;2023-12-29T00:44:09;98827.05;;;8.07;72.31
60642;BME280;46837;52.446;-1.930;2023-12-29T00:45:09;98830.12;;;8.10;72.48
60642;BME280;46837;52.446;-1.930;2023-12-29T00:46:09;98830.53;;;8.12;72.53
60642;BME280;46837;52.446;-1.930;2023-12-29T00:47:09;98827.43;;;8.12;72.56
60642;BME280;46837;52.446;-1.930;2023-12-29T00:48:09;98826.07;;;8.12;72.54
60642;BME280;46837;52.446;-1.930;2023-12-29T00:49:09;98833.55;;;8.15;72.57
60642;BME280;46837;52.446;-1.930;2023-12-29T00:50:09;98837.11;;;8.18;72.63
60642;BME280;46837;52.446;-1.930;2023-12-29T00:51:09;98830.98;;;8.17;72.68
60642;BME280;46837;52.446;-1.930;2023-12-29T00:52:09;98832.62;;;8.15;72.89
60642;BME280;46837;52.446;-1.930;2023-12-29T00:53:09;98832.45;;;8.17;73.05
60642;BME280;46837;52.446;-1.930;2023-12-29T00:54:09;98832.75;;;8.20;73.07
60642;BME280;46837;52.446;-1.930;2023-12-29T00:55:09;98827.01;;;8.18;73.19
60642;BME280;46837;52.446;-1.930;2023-12-29T00:56:11;98827.80;;;8.19;73.34
60642;BME280;46837;52.446;-1.930;2023-12-29T00:57:09;98834.71;;;8.21;73.51
60642;BME280;46837;52.446;-1.930;2023-12-29T00:58:09;98830.96;;;8.19;73.57
60642;BME280;46837;52.446;-1.930;2023-12-29T00:59:09;98834.11;;;8.20;73.75
60642;BME280;46837;52.446;-1.930;2023-12-29T01:00:10;98831.72;;;8.18;73.98
60642;BME280;46837;52.446;-1.930;2023-12-29T01:01:09;98835.48;;;8.19;74.01
60642;BME280;46837;52.446;-1.930;2023-12-29T01:02:09;98837.57;;;8.17;74.17
60642;BME280;46837;52.446;-1.930;2023-12-29T01:03:09;98829.71;;;8.18;74.19
60642;BME280;46837;52.446;-1.930;2023-12-29T01:04:09;98824.38;;;8.18;74.28
60642;BME280;46837;52.446;-1.930;2023-12-29T01:05:09;98834.83;;;8.18;74.50
60642;BME280;46837;52.446;-1.930;2023-12-29T01:06:09;98826.96;;;8.17;74.55
60642;BME280;46837;52.446;-1.930;2023-12-29T01:07:09;98828.46;;;8.18;74.50
60642;BME280;46837;52.446;-1.930;2023-12-29T01:08:09;98836.08;;;8.14;74.58
60642;BME280;46837;52.446;-1.930;2023-12-29T01:09:09;98831.95;;;8.11;74.72
60642;BME280;46837;52.446;-1.930;2023-12-29T01:10:09;98833.50;;;8.15;74.72
60642;BME280;46837;52.446;-1.930;2023-12-29T01:11:09;98833.22;;;8.15;74.65
60642;BME280;46837;52.446;-1.930;2023-12-29T01:12:09;98831.37;;;8.15;74.64
60642;BME280;46837;52.446;-1.930;2023-12-29T01:13:09;98835.75;;;8.13;74.68
60642;BME280;46837;52.446;-1.930;2023-12-29T01:14:09;98829.98;;;8.13;74.63
60642;BME280;46837;52.446;-1.930;2023-12-29T01:15:09;98830.47;;;8.13;74.65
60642;BME280;46837;52.446;-1.930;2023-12-29T01:16:09;98837.65;;;8.13;74.75
60642;BME280;46837;52.446;-1.930;2023-12-29T01:17:09;98831.18;;;8.13;74.74
60642;BME280;46837;52.446;-1.930;2023-12-29T01:18:09;98824.76;;;8.12;74.77
60642;BME280;46837;52.446;-1.930;2023-12-29T01:19:09;98817.12;;;8.10;74.59
60642;BME280;46837;52.446;-1.930;2023-12-29T01:20:09;98820.33;;;8.15;74.66
60642;BME280;46837;52.446;-1.930;2023-12-29T01:21:09;98821.98;;;8.18;74.47
60642;BME280;46837;52.446;-1.930;2023-12-29T01:22:09;98807.70;;;8.16;74.22
60642;BME280;46837;52.446;-1.930;2023-12-29T01:23:09;98805.52;;;8.16;74.22
60642;BME280;46837;52.446;-1.930;2023-12-29T01:24:09;98812.16;;;8.17;74.09
60642;BME280;46837;52.446;-1.930;2023-12-29T01:25:09;98813.71;;;8.19;74.05
60642;BME280;46837;52.446;-1.930;2023-12-29T01:26:09;98818.71;;;8.20;74.08
60642;BME280;46837;52.446;-1.930;2023-12-29T01:27:09;98822.03;;;8.20;73.79
60642;BME280;46837;52.446;-1.930;2023-12-29T01:28:09;98823.31;;;8.21;73.81
60642;BME280;46837;52.446;-1.930;2023-12-29T01:29:09;98821.10;;;8.25;73.77
60642;BME280;46837;52.446;-1.930;2023-12-29T01:30:09;98822.41;;;8.26;73.76
60642;BME280;46837;52.446;-1.930;2023-12-29T01:31:09;98810.00;;;8.26;73.93
60642;BME280;46837;52.446;-1.930;2023-12-29T01:32:10;98815.38;;;8.27;73.83
60642;BME280;46837;52.446;-1.930;2023-12-29T01:33:09;98818.73;;;8.29;73.75
60642;BME280;46837;52.446;-1.930;2023-12-29T01:34:09;98825.01;;;8.28;73.92
60642;BME280;46837;52.446;-1.930;2023-12-29T01:35:09;98833.15;;;8.29;73.70
60642;BME280;46837;52.446;-1.930;2023-12-29T01:36:09;98822.94;;;8.28;73.81
60642;BME280;46837;52.446;-1.930;2023-12-29T01:37:09;98824.16;;;8.31;73.78
60642;BME280;46837;52.446;-1.930;2023-12-29T01:38:09;98821.12;;;8.30;73.83
60642;BME280;46837;52.446;-1.930;2023-12-29T01:39:09;98824.37;;;8.25;74.06
60642;BME280;46837;52.446;-1.930;2023-12-29T01:40:09;98834.45;;;8.30;73.96
60642;BME280;46837;52.446;-1.930;2023-12-29T01:41:09;98836.19;;;8.30;73.92
60642;BME280;46837;52.446;-1.930;2023-12-29T01:42:09;98831.51;;;8.31;73.98
60642;BME280;46837;52.446;-1.930;2023-12-29T01:43:09;98837.57;;;8.33;74.00
60642;BME280;46837;52.446;-1.930;2023-12-29T01:46:09;98836.65;;;8.33;74.10
60642;BME280;46837;52.446;-1.930;2023-12-29T01:47:13;98842.42;;;8.32;74.18
60642;BME280;46837;52.446;-1.930;2023-12-29T01:48:09;98838.69;;;8.35;74.15
60642;BME280;46837;52.446;-1.930;2023-12-29T01:49:09;98834.15;;;8.32;74.09
60642;BME280;46837;52.446;-1.930;2023-12-29T01:50:09;98842.32;;;8.32;74.27
60642;BME280;46837;52.446;-1.930;2023-12-29T01:51:09;98838.61;;;8.33;74.20
60642;BME280;46837;52.446;-1.930;2023-12-29T01:52:09;98839.05;;;8.33;74.11
60642;BME280;46837;52.446;-1.930;2023-12-29T01:53:09;98830.59;;;8.30;74.12
60642;BME280;46837;52.446;-1.930;2023-12-29T01:54:09;98833.47;;;8.30;74.14
60642;BME280;46837;52.446;-1.930;2023-12-29T01:55:09;98832.65;;;8.31;74.15
60642;BME280;46837;52.446;-1.930;2023-12-29T01:56:09;98826.70;;;8.26;74.06
60642;BME280;46837;52.446;-1.930;2023-12-29T01:57:09;98835.54;;;8.30;74.11
60642;BME280;46837;52.446;-1.930;2023-12-29T01:58:09;98835.21;;;8.31;73.99
60642;BME280;46837;52.446;-1.930;2023-12-29T01:59:09;98834.01;;;8.31;74.02
60642;BME280;46837;52.446;-1.930;2023-12-29T02:00:09;98830.72;;;8.28;73.90
60642;BME280;46837;52.446;-1.930;2023-12-29T02:01:09;98833.58;;;8.30;73.80
60642;BME280;46837;52.446;-1.930;2023-12-29T02:02:09;98821.32;;;8.25;73.76
60642;BME280;46837;52.446;-1.930;2023-12-29T02:03:09;98820.96;;;8.25;73.76
60642;BME280;46837;52.446;-1.930;2023-12-29T02:04:09;98824.53;;;8.27;73.61
60642;BME280;46837;52.446;-1.930;2023-12-29T02:05:09;98824.47;;;8.27;73.63
60642;BME280;46837;52.446;-1.930;2023-12-29T02:06:09;98828.93;;;8.27;73.65
60642;BME280;46837;52.446;-1.930;2023-12-29T02:07:09;98830.48;;;8.24;73.67
60642;BME280;46837;52.446;-1.930;2023-12-29T02:08:09;98826.03;;;8.22;73.64
60642;BME280;46837;52.446;-1.930;2023-12-29T02:09:09;98829.26;;;8.26;73.63
60642;BME280;46837;52.446;-1.930;2023-12-29T02:10:09;98835.44;;;8.24;73.60
60642;BME280;46837;52.446;-1.930;2023-12-29T02:11:09;98841.51;;;8.25;73.58
60642;BME280;46837;52.446;-1.930;2023-12-29T02:12:09;98836.47;;;8.24;73.41
60642;BME280;46837;52.446;-1.930;2023-12-29T02:13:09;98843.17;;;8.22;73.40
60642;BME280;46837;52.446;-1.930;2023-12-29T02:14:09;98844.21;;;8.21;73.40
60642;BME280;46837;52.446;-1.930;2023-12-29T02:15:09;98843.57;;;8.21;73.43
60642;BME280;46837;52.446;-1.930;2023-12-29T02:16:16;98837.51;;;8.22;73.51
60642;BME280;46837;52.446;-1.930;2023-12-29T02:17:22;98843.69;;;8.20;73.37
60642;BME280;46837;52.446;-1.930;2023-12-29T02:18:09;98838.09;;;8.20;73.53
60642;BME280;46837;52.446;-1.930;2023-12-29T02:20:09;98847.12;;;8.19;73.67
60642;BME280;46837;52.446;-1.930;2023-12-29T02:21:09;98838.46;;;8.21;73.63
60642;BME280;46837;52.446;-1.930;2023-12-29T02:22:09;98845.27;;;8.19;73.81
60642;BME280;46837;52.446;-1.930;2023-12-29T02:23:09;98845.30;;;8.17;73.84
60642;BME280;46837;52.446;-1.930;2023-12-29T02:24:09;98832.35;;;8.16;73.95
60642;BME280;46837;52.446;-1.930;2023-12-29T02:25:09;98852.07;;;8.12;74.12
60642;BME280;46837;52.446;-1.930;2023-12-29T02:26:12;98841.58;;;8.11;74.34
60642;BME280;46837;52.446;-1.930;2023-12-29T02:27:12;98840.11;;;8.11;74.39
60642;BME280;46837;52.446;-1.930;2023-12-29T02:29:09;98844.57;;;8.12;74.49
60642;BME280;46837;52.446;-1.930;2023-12-29T02:30:13;98842.96;;;8.08;74.75
60642;BME280;46837;52.446;-1.930;2023-12-29T02:31:12;98841.34;;;8.08;74.80
60642;BME280;46837;52.446;-1.930;2023-12-29T02:32:11;98838.72;;;8.08;74.79
60642;BME280;46837;52.446;-1.930;2023-12-29T02:33:10;98838.64;;;8.07;74.92
60642;BME280;46837;52.446;-1.930;2023-12-29T02:34:09;98836.73;;;8.07;74.88
60642;BME280;46837;52.446;-1.930;2023-12-29T02:35:13;98841.42;;;8.04;75.05
60642;BME280;46837;52.446;-1.930;2023-12-29T02:36:09;98844.73;;;7.99;75.12
60642;BME280;46837;52.446;-1.930;2023-12-29T02:37:09;98845.25;;;8.01;75.18
60642;BME280;46837;52.446;-1.930;2023-12-29T02:38:09;98845.77;;;7.99;75.26
60642;BME280;46837;52.446;-1.930;2023-12-29T02:39:09;98855.12;;;7.99;75.36
60642;BME280;46837;52.446;-1.930;2023-12-29T02:40:09;98833.21;;;7.97;75.35
60642;BME280;46837;52.446;-1.930;2023-12-29T02:41:09;98841.50;;;7.95;75.20
60642;BME280;46837;52.446;-1.930;2023-12-29T02:42:09;98839.29;;;7.93;75.17
60642;BME280;46837;52.446;-1.930;2023-12-29T02:43:09;98836.52;;;7.93;75.22
60642;BME280;46837;52.446;-1.930;2023-12-29T02:44:09;98843.08;;;7.94;75.05
60642;BME280;46837;52.446;-1.930;2023-12-29T02:45:09;98847.48;;;7.97;74.99
60642;BME280;46837;52.446;-1.930;2023-12-29T02:46:09;98844.63;;;7.98;74.88
60642;BME280;46837;52.446;-1.930;2023-12-29T02:47:09;98846.34;;;7.95;74.85
60642;BME280;46837;52.446;-1.930;2023-12-29T02:48:09;98842.07;;;7.99;74.81
60642;BME280;46837;52.446;-1.930;2023-12-29T02:49:09;98846.86;;;7.98;74.77
60642;BME280;46837;52.446;-1.930;2023-12-29T02:50:09;98850.70;;;7.95;74.87
60642;BME280;46837;52.446;-1.930;2023-12-29T02:51:09;98835.89;;;7.96;74.90
60642;BME280;46837;52.446;-1.930;2023-12-29T02:52:09;98837.75;;;7.94;75.00
60642;BME280;46837;52.446;-1.930;2023-12-29T02:53:09;98836.23;;;7.95;74.88
60642;BME280;46837;52.446;-1.930;2023-12-29T02:54:09;98841.53;;;7.97;74.76
60642;BME280;46837;52.446;-1.930;2023-12-29T02:55:09;98841.34;;;7.96;74.80
60642;BME280;46837;52.446;-1.930;2023-12-29T02:56:09;98842.51;;;7.98;74.76
60642;BME280;46837;52.446;-1.930;2023-12-29T02:57:09;98837.23;;;7.97;74.67
60642;BME280;46837;52.446;-1.930;2023-12-29T02:58:09;98836.30;;;7.99;74.54
60642;BME280;46837;52.446;-1.930;2023-12-29T02:59:09;98834.26;;;7.97;74.50
60642;BME280;46837;52.446;-1.930;2023-12-29T03:00:09;98835.57;;;7.94;74.44
60642;BME280;46837;52.446;-1.930;2023-12-29T03:01:09;98828.04;;;7.93;74.27
60642;BME280;46837;52.446;-1.930;2023-12-29T03:02:09;98831.71;;;7.94;74.37
60642;BME280;46837;52.446;-1.930;2023-12-29T03:03:09;98834.70;;;7.95;74.08
60642;BME280;46837;52.446;-1.930;2023-12-29T03:04:09;98835.14;;;7.93;73.81
60642;BME280;46837;52.446;-1.930;2023-12-29T03:05:09;98839.81;;;7.97;73.81
60642;BME280;46837;52.446;-1.930;2023-12-29T03:06:09;98839.41;;;7.97;73.84
60642;BME280;46837;52.446;-1.930;2023-12-29T03:07:09;98835.47;;;7.93;73.80
60642;BME280;46837;52.446;-1.930;2023-12-29T03:08:09;98841.47;;;7.92;73.95
60642;BME280;46837;52.446;-1.930;2023-12-29T03:09:09;98841.36;;;7.92;73.84
60642;BME280;46837;52.446;-1.930;2023-12-29T03:10:09;98844.06;;;7.87;73.88
60642;BME280;46837;52.446;-1.930;2023-12-29T03:11:09;98842.73;;;7.90;73.84
60642;BME280;46837;52.446;-1.930;2023-12-29T03:12:09;98839.60;;;7.88;73.82
60642;BME280;46837;52.446;-1.930;2023-12-29T03:13:09;98845.85;;;7.86;73.56
60642;BME280;46837;52.446;-1.930;2023-12-29T03:14:09;98847.56;;;7.86;73.56
60642;BME280;46837;52.446;-1.930;2023-12-29T03:15:09;98844.87;;;7.89;73.64
60642;BME280;46837;52.446;-1.930;2023-12-29T03:16:09;98847.51;;;7.85;73.57
60642;BME280;46837;52.446;-1.930;2023-12-29T03:17:09;98843.81;;;7.83;73.66
60642;BME280;46837;52.446;-1.930;2023-12-29T03:18:09;98849.60;;;7.82;73.65
60642;BME280;46837;52.446;-1.930;2023-12-29T03:19:09;98852.64;;;7.81;73.58
60642;BME280;46837;52.446;-1.930;2023-12-29T03:20:09;98856.18;;;7.81;73.56
60642;BME280;46837;52.446;-1.930;2023-12-29T03:21:09;98857.32;;;7.81;73.53
60642;BME280;46837;52.446;-1.930;2023-12-29T03:22:09;98860.04;;;7.80;73.43
60642;BME280;46837;52.446;-1.930;2023-12-29T03:23:09;98857.11;;;7.80;73.61
60642;BME280;46837;52.446;-1.930;2023-12-29T03:24:09;98852.18;;;7.78;73.54
60642;BME280;46837;52.446;-1.930;2023-12-29T03:25:09;98850.03;;;7.73;73.68
60642;BME280;46837;52.446;-1.930;2023-12-29T03:26:09;98852.45;;;7.72;73.62
60642;BME280;46837;52.446;-1.930;2023-12-29T03:27:09;98854.51;;;7.71;73.51
60642;BME280;46837;52.446;-1.930;2023-12-29T03:28:09;98840.27;;;7.71;73.70
60642;BME280;46837;52.446;-1.930;2023-12-29T03:29:09;98845.52;;;7.73;73.57
60642;BME280;46837;52.446;-1.930;2023-12-29T03:30:09;98851.11;;;7.68;73.64
60642;BME280;46837;52.446;-1.930;2023-12-29T03:31:09;98850.79;;;7.68;73.63
60642;BME280;46837;52.446;-1.930;2023-12-29T03:32:10;98846.82;;;7.66;73.71
60642;BME280;46837;52.446;-1.930;2023-12-29T03:33:09;98842.05;;;7.65;73.75
60642;BME280;46837;52.446;-1.930;2023-12-29T03:34:09;98837.60;;;7.63;73.84
60642;BME280;46837;52.446;-1.930;2023-12-29T03:35:09;98835.10;;;7.63;73.98
60642;BME280;46837;52.446;-1.930;2023-12-29T03:36:09;98841.73;;;7.63;74.02
60642;BME280;46837;52.446;-1.930;2023-12-29T03:37:09;98830.96;;;7.62;74.03
60642;BME280;46837;52.446;-1.930;2023-12-29T03:38:09;98839.17;;;7.62;74.08
60642;BME280;46837;52.446;-1.930;2023-12-29T03:39:09;98834.72;;;7.62;74.04
60642;BME280;46837;52.446;-1.930;2023-12-29T03:40:09;98844.55;;;7.56;74.41
60642;BME280;46837;52.446;-1.930;2023-12-29T03:41:09;98838.91;;;7.52;74.56
60642;BME280;46837;52.446;-1.930;2023-12-29T03:42:09;98834.82;;;7.55;74.85
60642;BME280;46837;52.446;-1.930;2023-12-29T03:43:09;98841.25;;;7.54;74.95
60642;BME280;46837;52.446;-1.930;2023-12-29T03:44:09;98837.07;;;7.53;75.13
60642;BME280;46837;52.446;-1.930;2023-12-29T03:45:09;98845.19;;;7.50;75.47
60642;BME280;46837;52.446;-1.930;2023-12-29T03:46:16;98845.77;;;7.52;75.50
60642;BME280;46837;52.446;-1.930;2023-12-29T03:47:09;98843.64;;;7.52;75.55
60642;BME280;46837;52.446;-1.930;2023-12-29T03:48:09;98845.46;;;7.51;75.83
60642;BME280;46837;52.446;-1.930;2023-12-29T03:49:09;98847.42;;;7.50;76.12
60642;BME280;46837;52.446;-1.930;2023-12-29T03:50:09;98845.84;;;7.48;76.43
60642;BME280;46837;52.446;-1.930;2023-12-29T03:51:09;98845.08;;;7.49;76.62
60642;BME280;46837;52.446;-1.930;2023-12-29T03:52:09;98848.02;;;7.49;76.65
60642;BME280;46837;52.446;-1.930;2023-12-29T03:53:09;98848.34;;;7.51;76.73
60642;BME280;46837;52.446;-1.930;2023-12-29T03:54:09;98845.52;;;7.50;77.06
60642;BME280;46837;52.446;-1.930;2023-12-29T03:55:09;98848.97;;;7.52;77.27
60642;BME280;46837;52.446;-1.930;2023-12-29T03:56:09;98843.97;;;7.53;77.30
60642;BME280;46837;52.446;-1.930;2023-12-29T03:57:09;98845.88;;;7.53;77.52
60642;BME280;46837;52.446;-1.930;2023-12-29T03:58:09;98845.20;;;7.55;77.54
60642;BME280;46837;52.446;-1.930;2023-12-29T03:59:09;98843.38;;;7.52;77.80
60642;BME280;46837;52.446;-1.930;2023-12-29T04:00:10;98846.42;;;7.53;77.82
60642;BME280;46837;52.446;-1.930;2023-12-29T04:01:13;98846.47;;;7.54;77.80
60642;BME280;46837;52.446;-1.930;2023-12-29T04:02:09;98849.73;;;7.54;77.91
60642;BME280;46837;52.446;-1.930;2023-12-29T04:03:09;98848.27;;;7.53;77.99
60642;BME280;46837;52.446;-1.930;2023-12-29T04:04:09;98848.41;;;7.55;77.98
60642;BME280;46837;52.446;-1.930;2023-12-29T04:05:09;98845.98;;;7.54;77.97
60642;BME280;46837;52.446;-1.930;2023-12-29T04:06:09;98845.60;;;7.52;78.14
60642;BME280;46837;52.446;-1.930;2023-12-29T04:07:09;98841.08;;;7.47;78.47
60642;BME280;46837;52.446;-1.930;2023-12-29T04:08:09;98840.89;;;7.48;78.56
60642;BME280;46837;52.446;-1.930;2023-12-29T04:09:09;98838.04;;;7.46;78.59
60642;BME280;46837;52.446;-1.930;2023-12-29T04:10:09;98829.27;;;7.40;78.99
60642;BME280;46837;52.446;-1.930;2023-12-29T04:11:09;98835.66;;;7.43;79.09
60642;BME280;46837;52.446;-1.930;2023-12-29T04:12:09;98833.82;;;7.42;79.04
60642;BME280;46837;52.446;-1.930;2023-12-29T04:13:09;98833.03;;;7.46;78.98
60642;BME280;46837;52.446;-1.930;2023-12-29T04:14:09;98835.70;;;7.44;78.98
60642;BME280;46837;52.446;-1.930;2023-12-29T04:15:09;98833.54;;;7.43;79.12
60642;BME280;46837;52.446;-1.930;2023-12-29T04:16:09;98827.76;;;7.44;79.01
60642;BME280;46837;52.446;-1.930;2023-12-29T04:17:13;98826.37;;;7.43;79.05
60642;BME280;46837;52.446;-1.930;2023-12-29T04:18:09;98830.12;;;7.44;79.00
60642;BME280;46837;52.446;-1.930;2023-12-29T04:19:09;98827.15;;;7.39;79.11
60642;BME280;46837;52.446;-1.930;2023-12-29T04:20:09;98830.41;;;7.38;79.21
60642;BME280;46837;52.446;-1.930;2023-12-29T04:21:12;98829.67;;;7.37;79.21
60642;BME280;46837;52.446;-1.930;2023-12-29T04:22:09;98828.67;;;7.39;79.16
60642;BME280;46837;52.446;-1.930;2023-12-29T04:23:09;98831.93;;;7.38;79.18
60642;BME280;46837;52.446;-1.930;2023-12-29T04:24:09;98834.60;;;7.38;79.20
60642;BME280;46837;52.446;-1.930;2023-12-29T04:25:09;98832.98;;;7.35;79.25
60642;BME280;46837;52.446;-1.930;2023-12-29T04:26:09;98830.09;;;7.38;79.26
60642;BME280;46837;52.446;-1.930;2023-12-29T04:27:09;98840.52;;;7.38;79.23
60642;BME280;46837;52.446;-1.930;2023-12-29T04:28:09;98831.01;;;7.39;79.21
60642;BME280;46837;52.446;-1.930;2023-12-29T04:29:09;98844.70;;;7.40;79.27
60642;BME280;46837;52.446;-1.930;2023-12-29T04:30:09;98835.85;;;7.38;79.37
60642;BME280;46837;52.446;-1.930;2023-12-29T04:31:09;98833.89;;;7.39;79.25
60642;BME280;46837;52.446;-1.930;2023-12-29T04:32:09;98826.06;;;7.40;79.13
60642;BME280;46837;52.446;-1.930;2023-12-29T04:33:09;98840.63;;;7.38;79.19
60642;BME280;46837;52.446;-1.930;2023-12-29T04:34:09;98832.37;;;7.40;79.10
60642;BME280;46837;52.446;-1.930;2023-12-29T04:35:09;98831.88;;;7.37;79.11
60642;BME280;46837;52.446;-1.930;2023-12-29T04:36:09;98832.80;;;7.38;79.02
60642;BME280;46837;52.446;-1.930;2023-12-29T04:37:09;98830.92;;;7.36;78.97
60642;BME280;46837;52.446;-1.930;2023-12-29T04:38:09;98839.02;;;7.34;79.11
60642;BME280;46837;52.446;-1.930;2023-12-29T04:39:09;98838.10;;;7.36;78.95
60642;BME280;46837;52.446;-1.930;2023-12-29T04:40:09;98830.27;;;7.36;78.87
60642;BME280;46837;52.446;-1.930;2023-12-29T04:41:09;98832.19;;;7.33;78.88
60642;BME280;46837;52.446;-1.930;2023-12-29T04:42:09;98825.16;;;7.34;78.81
60642;BME280;46837;52.446;-1.930;2023-12-29T04:43:09;98830.29;;;7.32;78.80
60642;BME280;46837;52.446;-1.930;2023-12-29T04:44:09;98827.54;;;7.27;78.82
60642;BME280;46837;52.446;-1.930;2023-12-29T04:45:09;98830.05;;;7.26;78.87
60642;BME280;46837;52.446;-1.930;2023-12-29T04:46:09;98838.04;;;7.26;78.80
60642;BME280;46837;52.446;-1.930;2023-12-29T04:47:09;98839.87;;;7.28;78.65
60642;BME280;46837;52.446;-1.930;2023-12-29T04:48:09;98830.63;;;7.27;78.58
60642;BME280;46837;52.446;-1.930;2023-12-29T04:49:09;98837.54;;;7.29;78.47
60642;BME280;46837;52.446;-1.930;2023-12-29T04:50:11;98840.96;;;7.29;78.38
60642;BME280;46837;52.446;-1.930;2023-12-29T04:51:09;98829.33;;;7.27;78.39
60642;BME280;46837;52.446;-1.930;2023-12-29T04:52:09;98818.59;;;7.26;78.35
60642;BME280;46837;52.446;-1.930;2023-12-29T04:53:09;98835.87;;;7.24;78.43
60642;BME280;46837;52.446;-1.930;2023-12-29T04:54:09;98831.58;;;7.25;78.40
60642;BME280;46837;52.446;-1.930;2023-12-29T04:55:09;98835.43;;;7.25;78.42
60642;BME280;46837;52.446;-1.930;2023-12-29T04:56:09;98836.52;;;7.24;78.38
60642;BME280;46837;52.446;-1.930;2023-12-29T04:57:09;98831.52;;;7.25;78.33
60642;BME280;46837;52.446;-1.930;2023-12-29T04:58:09;98841.75;;;7.22;78.52
60642;BME280;46837;52.446;-1.930;2023-12-29T04:59:09;98844.14;;;7.23;78.48
60642;BME280;46837;52.446;-1.930;2023-12-29T05:00:09;98843.88;;;7.22;78.41
60642;BME280;46837;52.446;-1.930;2023-12-29T05:01:09;98845.39;;;7.23;78.39
60642;BME280;46837;52.446;-1.930;2023-12-29T05:02:09;98846.59;;;7.22;78.41
60642;BME280;46837;52.446;-1.930;2023-12-29T05:03:09;98852.02;;;7.22;78.53
60642;BME280;46837;52.446;-1.930;2023-12-29T05:04:09;98852.46;;;7.20;78.51
60642;BME280;46837;52.446;-1.930;2023-12-29T05:05:09;98857.40;;;7.21;78.52
60642;BME280;46837;52.446;-1.930;2023-12-29T05:06:09;98856.32;;;7.21;78.45
60642;BME280;46837;52.446;-1.930;2023-12-29T05:07:09;98853.51;;;7.19;78.49
60642;BME280;46837;52.446;-1.930;2023-12-29T05:08:09;98855.84;;;7.17;78.48
60642;BME280;46837;52.446;-1.930;2023-12-29T05:09:09;98858.25;;;7.16;78.48
60642;BME280;46837;52.446;-1.930;2023-12-29T05:10:09;98861.25;;;7.12;78.54
60642;BME280;46837;52.446;-1.930;2023-12-29T05:11:09;98858.90;;;7.13;78.52
60642;BME280;46837;52.446;-1.930;2023-12-29T05:12:09;98855.75;;;7.14;78.40
60642;BME280;46837;52.446;-1.930;2023-12-29T05:13:09;98862.99;;;7.12;78.45
60642;BME280;46837;52.446;-1.930;2023-12-29T05:14:09;98857.78;;;7.12;78.43
60642;BME280;46837;52.446;-1.930;2023-12-29T05:15:09;98863.26;;;7.10;78.38
60642;BME280;46837;52.446;-1.930;2023-12-29T05:16:09;98870.64;;;7.09;78.22
60642;BME280;46837;52.446;-1.930;2023-12-29T05:17:09;98862.99;;;7.11;78.30
60642;BME280;46837;52.446;-1.930;2023-12-29T05:18:09;98869.49;;;7.13;78.06
60642;BME280;46837;52.446;-1.930;2023-12-29T05:19:09;98871.88;;;7.13;78.04
60642;BME280;46837;52.446;-1.930;2023-12-29T05:20:09;98872.23;;;7.12;78.07
60642;BME280;46837;52.446;-1.930;2023-12-29T05:21:16;98876.15;;;7.09;77.97